Southwest Florida International Airport

Date: 2024-06-11 12:31:00Z

Type: SPECI

Weather: Thunderstorms

Winds: 190° at 17 kts

Visibility: 4

Ceiling (AGL FT): Clouds FEW at 1400, BROKEN at 2600, OVERCAST at 3400

RAW METAR: KRSW 111231Z 19017KT 4SM TSRA BR FEW014 BKN026 OVC034 24/23 A2992 RMK AO2 WSHFT 1217 LTG DSNT E RAB1156 TSB26 P0030 T02390233

project-image